sensor_id;sensor_type;location;lat;lon;timestamp;temperature;humidity
31729;DHT22;18309;43.658;1.312;2023-09-07T00:00:36;22.50;68.50
31729;DHT22;18309;43.658;1.312;2023-09-07T00:03:01;22.40;68.70
31729;DHT22;18309;43.658;1.312;2023-09-07T00:05:27;22.40;68.70
31729;DHT22;18309;43.658;1.312;2023-09-07T00:07:53;22.40;68.80
31729;DHT22;18309;43.658;1.312;2023-09-07T00:10:19;22.40;68.90
31729;DHT22;18309;43.658;1.312;2023-09-07T00:12:44;22.40;68.70
31729;DHT22;18309;43.658;1.312;2023-09-07T00:15:11;22.40;69.10
31729;DHT22;18309;43.658;1.312;2023-09-07T00:17:37;22.40;69.90
31729;DHT22;18309;43.658;1.312;2023-09-07T00:20:03;22.30;70.70
31729;DHT22;18309;43.658;1.312;2023-09-07T00:22:36;22.20;70.70
31729;DHT22;18309;43.658;1.312;2023-09-07T00:25:03;22.10;71.30
31729;DHT22;18309;43.658;1.312;2023-09-07T00:27:30;22.00;71.70
31729;DHT22;18309;43.658;1.312;2023-09-07T00:29:55;22.00;71.50
31729;DHT22;18309;43.658;1.312;2023-09-07T00:32:21;22.00;71.80
31729;DHT22;18309;43.658;1.312;2023-09-07T00:34:47;21.90;73.00
31729;DHT22;18309;43.658;1.312;2023-09-07T00:37:12;21.80;72.00
31729;DHT22;18309;43.658;1.312;2023-09-07T00:39:38;21.80;72.60
31729;DHT22;18309;43.658;1.312;2023-09-07T00:42:04;21.70;72.90
31729;DHT22;18309;43.658;1.312;2023-09-07T00:44:29;21.60;73.70
31729;DHT22;18309;43.658;1.312;2023-09-07T00:46:56;21.60;74.00
31729;DHT22;18309;43.658;1.312;2023-09-07T00:49:23;21.50;73.70
31729;DHT22;18309;43.658;1.312;2023-09-07T00:51:50;21.50;74.00
31729;DHT22;18309;43.658;1.312;2023-09-07T00:54:16;21.40;74.40
31729;DHT22;18309;43.658;1.312;2023-09-07T00:56:42;21.40;74.70
31729;DHT22;18309;43.658;1.312;2023-09-07T00:59:08;21.40;75.30
31729;DHT22;18309;43.658;1.312;2023-09-07T01:01:35;21.40;75.50
31729;DHT22;18309;43.658;1.312;2023-09-07T01:04:01;21.30;76.50
31729;DHT22;18309;43.658;1.312;2023-09-07T01:06:52;21.20;76.70
31729;DHT22;18309;43.658;1.312;2023-09-07T01:09:24;21.20;77.00
31729;DHT22;18309;43.658;1.312;2023-09-07T01:11:52;21.20;77.40
31729;DHT22;18309;43.658;1.312;2023-09-07T01:14:18;21.20;77.70
31729;DHT22;18309;43.658;1.312;2023-09-07T01:16:44;21.10;77.90
31729;DHT22;18309;43.658;1.312;2023-09-07T01:19:10;21.10;77.70
31729;DHT22;18309;43.658;1.312;2023-09-07T01:21:37;21.20;79.00
31729;DHT22;18309;43.658;1.312;2023-09-07T01:24:08;21.10;78.00
31729;DHT22;18309;43.658;1.312;2023-09-07T01:26:35;21.10;77.50
31729;DHT22;18309;43.658;1.312;2023-09-07T01:29:05;21.10;77.80
31729;DHT22;18309;43.658;1.312;2023-09-07T01:31:35;21.10;77.80
31729;DHT22;18309;43.658;1.312;2023-09-07T01:34:01;21.00;78.90
31729;DHT22;18309;43.658;1.312;2023-09-07T01:36:26;20.90;78.80
31729;DHT22;18309;43.658;1.312;2023-09-07T01:38:52;21.00;78.60
31729;DHT22;18309;43.658;1.312;2023-09-07T01:41:17;20.90;78.80
31729;DHT22;18309;43.658;1.312;2023-09-07T01:43:43;21.00;78.10
31729;DHT22;18309;43.658;1.312;2023-09-07T01:46:09;21.00;77.80
31729;DHT22;18309;43.658;1.312;2023-09-07T01:48:35;21.00;77.30
31729;DHT22;18309;43.658;1.312;2023-09-07T01:51:01;21.00;76.80
31729;DHT22;18309;43.658;1.312;2023-09-07T01:53:27;21.00;77.00
31729;DHT22;18309;43.658;1.312;2023-09-07T01:55:55;21.00;78.00
31729;DHT22;18309;43.658;1.312;2023-09-07T01:58:22;21.00;79.20
31729;DHT22;18309;43.658;1.312;2023-09-07T02:00:49;21.00;79.80
31729;DHT22;18309;43.658;1.312;2023-09-07T02:03:15;20.90;79.50
31729;DHT22;18309;43.658;1.312;2023-09-07T02:05:41;20.90;79.60
31729;DHT22;18309;43.658;1.312;2023-09-07T02:08:06;20.80;80.50
31729;DHT22;18309;43.658;1.312;2023-09-07T02:10:33;20.70;81.00
31729;DHT22;18309;43.658;1.312;2023-09-07T02:12:59;20.60;81.10
31729;DHT22;18309;43.658;1.312;2023-09-07T02:15:25;20.60;80.40
31729;DHT22;18309;43.658;1.312;2023-09-07T02:17:50;20.50;80.80
31729;DHT22;18309;43.658;1.312;2023-09-07T02:20:16;20.50;81.20
31729;DHT22;18309;43.658;1.312;2023-09-07T02:22:44;20.60;80.90
31729;DHT22;18309;43.658;1.312;2023-09-07T02:25:09;20.50;80.80
31729;DHT22;18309;43.658;1.312;2023-09-07T02:27:36;20.50;80.70
31729;DHT22;18309;43.658;1.312;2023-09-07T02:30:03;20.50;80.60
31729;DHT22;18309;43.658;1.312;2023-09-07T02:32:28;20.40;81.00
31729;DHT22;18309;43.658;1.312;2023-09-07T02:34:54;20.50;80.60
31729;DHT22;18309;43.658;1.312;2023-09-07T02:37:20;20.50;79.90
31729;DHT22;18309;43.658;1.312;2023-09-07T02:39:45;20.50;80.00
31729;DHT22;18309;43.658;1.312;2023-09-07T02:42:11;20.50;78.50
31729;DHT22;18309;43.658;1.312;2023-09-07T02:44:37;20.60;78.10
31729;DHT22;18309;43.658;1.312;2023-09-07T02:47:03;20.60;77.60
31729;DHT22;18309;43.658;1.312;2023-09-07T02:49:29;20.70;77.80
31729;DHT22;18309;43.658;1.312;2023-09-07T02:51:55;20.70;77.50
31729;DHT22;18309;43.658;1.312;2023-09-07T02:54:20;20.60;78.40
31729;DHT22;18309;43.658;1.312;2023-09-07T02:56:46;20.50;78.30
31729;DHT22;18309;43.658;1.312;2023-09-07T02:59:12;20.50;78.40
31729;DHT22;18309;43.658;1.312;2023-09-07T03:01:40;20.60;78.40
31729;DHT22;18309;43.658;1.312;2023-09-07T03:04:06;20.60;78.60
31729;DHT22;18309;43.658;1.312;2023-09-07T03:06:32;20.60;78.90
31729;DHT22;18309;43.658;1.312;2023-09-07T03:08:58;20.60;78.80
31729;DHT22;18309;43.658;1.312;2023-09-07T03:11:24;20.60;79.30
31729;DHT22;18309;43.658;1.312;2023-09-07T03:13:49;20.50;79.70
31729;DHT22;18309;43.658;1.312;2023-09-07T03:16:15;20.60;79.40
31729;DHT22;18309;43.658;1.312;2023-09-07T03:18:41;20.50;79.50
31729;DHT22;18309;43.658;1.312;2023-09-07T03:21:07;20.50;79.70
31729;DHT22;18309;43.658;1.312;2023-09-07T03:23:33;20.50;79.60
31729;DHT22;18309;43.658;1.312;2023-09-07T03:26:00;20.50;79.30
31729;DHT22;18309;43.658;1.312;2023-09-07T03:28:26;20.40;79.70
31729;DHT22;18309;43.658;1.312;2023-09-07T03:30:53;20.30;80.00
31729;DHT22;18309;43.658;1.312;2023-09-07T03:33:19;20.30;80.50
31729;DHT22;18309;43.658;1.312;2023-09-07T03:35:45;20.40;80.00
31729;DHT22;18309;43.658;1.312;2023-09-07T03:38:10;20.40;79.90
31729;DHT22;18309;43.658;1.312;2023-09-07T03:40:36;20.30;79.60
31729;DHT22;18309;43.658;1.312;2023-09-07T03:43:02;20.40;79.90
31729;DHT22;18309;43.658;1.312;2023-09-07T03:45:28;20.30;79.80
31729;DHT22;18309;43.658;1.312;2023-09-07T03:47:53;20.30;80.60
31729;DHT22;18309;43.658;1.312;2023-09-07T03:50:19;20.30;80.70
31729;DHT22;18309;43.658;1.312;2023-09-07T03:52:45;20.20;81.30
31729;DHT22;18309;43.658;1.312;2023-09-07T03:55:11;20.20;81.20
31729;DHT22;18309;43.658;1.312;2023-09-07T03:57:37;20.20;81.60
31729;DHT22;18309;43.658;1.312;2023-09-07T04:00:03;20.10;82.10
31729;DHT22;18309;43.658;1.312;2023-09-07T04:02:33;20.10;82.00
31729;DHT22;18309;43.658;1.312;2023-09-07T04:04:58;20.00;82.50
31729;DHT22;18309;43.658;1.312;2023-09-07T04:07:24;20.00;82.40
31729;DHT22;18309;43.658;1.312;2023-09-07T04:09:50;19.90;82.10
31729;DHT22;18309;43.658;1.312;2023-09-07T04:12:16;19.90;82.10
31729;DHT22;18309;43.658;1.312;2023-09-07T04:14:42;19.90;82.20
31729;DHT22;18309;43.658;1.312;2023-09-07T04:17:08;19.80;82.50
31729;DHT22;18309;43.658;1.312;2023-09-07T04:19:33;19.80;83.00
31729;DHT22;18309;43.658;1.312;2023-09-07T04:22:00;19.70;82.80
31729;DHT22;18309;43.658;1.312;2023-09-07T04:24:25;19.80;82.80
31729;DHT22;18309;43.658;1.312;2023-09-07T04:26:53;19.80;82.60
31729;DHT22;18309;43.658;1.312;2023-09-07T04:29:18;19.70;82.90
31729;DHT22;18309;43.658;1.312;2023-09-07T04:31:44;19.70;83.60
31729;DHT22;18309;43.658;1.312;2023-09-07T04:34:11;19.70;83.40
31729;DHT22;18309;43.658;1.312;2023-09-07T04:36:37;19.70;83.70
31729;DHT22;18309;43.658;1.312;2023-09-07T04:39:03;19.60;84.10
31729;DHT22;18309;43.658;1.312;2023-09-07T04:41:29;19.60;84.60
31729;DHT22;18309;43.658;1.312;2023-09-07T04:43:54;19.60;84.80
31729;DHT22;18309;43.658;1.312;2023-09-07T04:46:21;19.50;84.80
31729;DHT22;18309;43.658;1.312;2023-09-07T04:48:48;19.50;85.00
31729;DHT22;18309;43.658;1.312;2023-09-07T04:51:13;19.50;85.60
31729;DHT22;18309;43.658;1.312;2023-09-07T04:53:39;19.50;85.30
31729;DHT22;18309;43.658;1.312;2023-09-07T04:56:06;19.40;85.70
31729;DHT22;18309;43.658;1.312;2023-09-07T04:58:33;19.40;85.80
31729;DHT22;18309;43.658;1.312;2023-09-07T05:01:03;19.40;85.50
31729;DHT22;18309;43.658;1.312;2023-09-07T05:03:29;19.40;86.10
31729;DHT22;18309;43.658;1.312;2023-09-07T05:05:55;19.50;85.70
31729;DHT22;18309;43.658;1.312;2023-09-07T05:08:21;19.50;85.70
31729;DHT22;18309;43.658;1.312;2023-09-07T05:10:48;19.50;85.30
31729;DHT22;18309;43.658;1.312;2023-09-07T05:13:14;19.40;86.00
31729;DHT22;18309;43.658;1.312;2023-09-07T05:15:50;19.40;85.80
31729;DHT22;18309;43.658;1.312;2023-09-07T05:18:16;19.40;86.00
31729;DHT22;18309;43.658;1.312;2023-09-07T05:20:42;19.40;86.30
31729;DHT22;18309;43.658;1.312;2023-09-07T05:23:13;19.40;86.20
31729;DHT22;18309;43.658;1.312;2023-09-07T05:25:49;19.40;86.00
31729;DHT22;18309;43.658;1.312;2023-09-07T05:28:19;19.50;86.10
31729;DHT22;18309;43.658;1.312;2023-09-07T05:30:45;19.50;85.80
31729;DHT22;18309;43.658;1.312;2023-09-07T05:33:12;19.40;85.40
31729;DHT22;18309;43.658;1.312;2023-09-07T05:35:41;19.40;84.90
31729;DHT22;18309;43.658;1.312;2023-09-07T05:38:11;19.40;85.00
31729;DHT22;18309;43.658;1.312;2023-09-07T05:40:44;19.50;86.20
31729;DHT22;18309;43.658;1.312;2023-09-07T05:43:11;19.40;86.70
31729;DHT22;18309;43.658;1.312;2023-09-07T05:45:38;19.40;86.60
31729;DHT22;18309;43.658;1.312;2023-09-07T05:48:05;19.40;86.80
31729;DHT22;18309;43.658;1.312;2023-09-07T05:50:33;19.40;86.30
31729;DHT22;18309;43.658;1.312;2023-09-07T05:52:59;19.40;86.50
31729;DHT22;18309;43.658;1.312;2023-09-07T05:55:24;19.50;86.50
31729;DHT22;18309;43.658;1.312;2023-09-07T05:57:50;19.50;86.70
31729;DHT22;18309;43.658;1.312;2023-09-07T06:00:16;19.50;86.70
31729;DHT22;18309;43.658;1.312;2023-09-07T06:02:46;19.50;86.40
31729;DHT22;18309;43.658;1.312;2023-09-07T06:05:12;19.50;86.50
31729;DHT22;18309;43.658;1.312;2023-09-07T06:07:38;19.50;87.00
31729;DHT22;18309;43.658;1.312;2023-09-07T06:10:04;19.50;87.10
31729;DHT22;18309;43.658;1.312;2023-09-07T06:12:31;19.50;86.30
31729;DHT22;18309;43.658;1.312;2023-09-07T06:14:57;19.50;86.90
31729;DHT22;18309;43.658;1.312;2023-09-07T06:17:23;19.60;87.60
31729;DHT22;18309;43.658;1.312;2023-09-07T06:19:48;19.80;87.50
31729;DHT22;18309;43.658;1.312;2023-09-07T06:22:14;19.90;87.20
31729;DHT22;18309;43.658;1.312;2023-09-07T06:24:40;20.10;86.00
31729;DHT22;18309;43.658;1.312;2023-09-07T06:27:05;20.30;85.70
31729;DHT22;18309;43.658;1.312;2023-09-07T06:29:31;20.50;85.00
31729;DHT22;18309;43.658;1.312;2023-09-07T06:31:57;20.50;83.50
31729;DHT22;18309;43.658;1.312;2023-09-07T06:34:24;20.80;83.40
31729;DHT22;18309;43.658;1.312;2023-09-07T06:36:50;21.00;83.00
31729;DHT22;18309;43.658;1.312;2023-09-07T06:39:16;21.00;82.40
31729;DHT22;18309;43.658;1.312;2023-09-07T06:41:41;21.20;81.90
31729;DHT22;18309;43.658;1.312;2023-09-07T06:44:07;21.20;80.80
31729;DHT22;18309;43.658;1.312;2023-09-07T06:46:33;21.30;80.20
31729;DHT22;18309;43.658;1.312;2023-09-07T06:48:59;21.50;81.10
31729;DHT22;18309;43.658;1.312;2023-09-07T06:51:24;21.60;80.70
31729;DHT22;18309;43.658;1.312;2023-09-07T06:53:50;21.70;80.50
31729;DHT22;18309;43.658;1.312;2023-09-07T06:56:16;21.80;79.70
31729;DHT22;18309;43.658;1.312;2023-09-07T06:58:41;21.90;78.90
31729;DHT22;18309;43.658;1.312;2023-09-07T07:01:07;21.90;79.10
31729;DHT22;18309;43.658;1.312;2023-09-07T07:03:33;22.00;78.30
31729;DHT22;18309;43.658;1.312;2023-09-07T07:05:59;22.00;78.10
31729;DHT22;18309;43.658;1.312;2023-09-07T07:08:25;22.10;77.50
31729;DHT22;18309;43.658;1.312;2023-09-07T07:10:51;22.20;77.90
31729;DHT22;18309;43.658;1.312;2023-09-07T07:13:16;22.20;77.00
31729;DHT22;18309;43.658;1.312;2023-09-07T07:15:42;22.20;76.90
31729;DHT22;18309;43.658;1.312;2023-09-07T07:18:08;22.40;76.90
31729;DHT22;18309;43.658;1.312;2023-09-07T07:20:41;22.40;76.10
31729;DHT22;18309;43.658;1.312;2023-09-07T07:23:07;22.50;76.10
31729;DHT22;18309;43.658;1.312;2023-09-07T07:25:33;22.50;76.10
31729;DHT22;18309;43.658;1.312;2023-09-07T07:28:08;22.60;75.90
31729;DHT22;18309;43.658;1.312;2023-09-07T07:30:38;22.70;76.20
31729;DHT22;18309;43.658;1.312;2023-09-07T07:33:06;22.80;75.40
31729;DHT22;18309;43.658;1.312;2023-09-07T07:35:35;22.80;75.40
31729;DHT22;18309;43.658;1.312;2023-09-07T07:38:05;22.80;74.60
31729;DHT22;18309;43.658;1.312;2023-09-07T07:40:31;22.90;75.50
31729;DHT22;18309;43.658;1.312;2023-09-07T07:42:57;22.90;74.40
31729;DHT22;18309;43.658;1.312;2023-09-07T07:45:23;22.90;75.60
31729;DHT22;18309;43.658;1.312;2023-09-07T07:47:49;23.00;74.40
31729;DHT22;18309;43.658;1.312;2023-09-07T07:50:16;23.10;73.90
31729;DHT22;18309;43.658;1.312;2023-09-07T07:52:42;23.10;74.20
31729;DHT22;18309;43.658;1.312;2023-09-07T07:55:08;23.20;75.00
31729;DHT22;18309;43.658;1.312;2023-09-07T07:57:34;23.30;73.60
31729;DHT22;18309;43.658;1.312;2023-09-07T07:59:59;23.30;74.10
31729;DHT22;18309;43.658;1.312;2023-09-07T08:02:25;23.40;74.10
31729;DHT22;18309;43.658;1.312;2023-09-07T08:04:51;23.50;73.90
31729;DHT22;18309;43.658;1.312;2023-09-07T08:07:18;23.60;73.90
31729;DHT22;18309;43.658;1.312;2023-09-07T08:09:44;23.60;73.50
31729;DHT22;18309;43.658;1.312;2023-09-07T08:12:10;23.60;72.80
31729;DHT22;18309;43.658;1.312;2023-09-07T08:14:35;23.60;73.30
31729;DHT22;18309;43.658;1.312;2023-09-07T08:17:01;23.70;72.90
31729;DHT22;18309;43.658;1.312;2023-09-07T08:19:27;23.80;72.80
31729;DHT22;18309;43.658;1.312;2023-09-07T08:21:57;23.80;72.50
31729;DHT22;18309;43.658;1.312;2023-09-07T08:24:23;23.80;72.80
31729;DHT22;18309;43.658;1.312;2023-09-07T08:26:49;23.90;72.50
31729;DHT22;18309;43.658;1.312;2023-09-07T08:29:19;23.90;72.40
31729;DHT22;18309;43.658;1.312;2023-09-07T08:31:46;23.90;72.80
31729;DHT22;18309;43.658;1.312;2023-09-07T08:34:13;24.00;71.90
31729;DHT22;18309;43.658;1.312;2023-09-07T08:36:40;24.00;71.50
31729;DHT22;18309;43.658;1.312;2023-09-07T08:39:06;24.10;71.80
31729;DHT22;18309;43.658;1.312;2023-09-07T08:41:42;24.10;71.00
31729;DHT22;18309;43.658;1.312;2023-09-07T08:44:17;24.10;71.10
31729;DHT22;18309;43.658;1.312;2023-09-07T08:46:43;24.30;71.10
31729;DHT22;18309;43.658;1.312;2023-09-07T08:49:11;24.30;70.50
31729;DHT22;18309;43.658;1.312;2023-09-07T08:51:37;24.40;70.00
31729;DHT22;18309;43.658;1.312;2023-09-07T08:54:07;24.40;69.50
31729;DHT22;18309;43.658;1.312;2023-09-07T08:56:34;24.50;70.20
31729;DHT22;18309;43.658;1.312;2023-09-07T08:58:59;24.50;70.10
31729;DHT22;18309;43.658;1.312;2023-09-07T09:01:25;24.60;70.10
31729;DHT22;18309;43.658;1.312;2023-09-07T09:03:51;24.80;70.60
31729;DHT22;18309;43.658;1.312;2023-09-07T09:06:18;24.80;69.10
31729;DHT22;18309;43.658;1.312;2023-09-07T09:08:46;24.90;68.70
31729;DHT22;18309;43.658;1.312;2023-09-07T09:11:14;24.90;69.00
31729;DHT22;18309;43.658;1.312;2023-09-07T09:13:40;25.00;68.60
31729;DHT22;18309;43.658;1.312;2023-09-07T09:16:06;25.00;68.60
31729;DHT22;18309;43.658;1.312;2023-09-07T09:18:32;25.10;69.00
31729;DHT22;18309;43.658;1.312;2023-09-07T09:20:58;25.20;68.60
31729;DHT22;18309;43.658;1.312;2023-09-07T09:23:34;25.20;68.80
31729;DHT22;18309;43.658;1.312;2023-09-07T09:26:01;25.40;68.20
31729;DHT22;18309;43.658;1.312;2023-09-07T09:28:30;25.50;67.40
31729;DHT22;18309;43.658;1.312;2023-09-07T09:31:01;25.50;67.60
31729;DHT22;18309;43.658;1.312;2023-09-07T09:33:30;25.60;67.50
31729;DHT22;18309;43.658;1.312;2023-09-07T09:35:57;25.70;68.30
31729;DHT22;18309;43.658;1.312;2023-09-07T09:38:23;25.80;67.50
31729;DHT22;18309;43.658;1.312;2023-09-07T09:40:49;25.80;67.40
31729;DHT22;18309;43.658;1.312;2023-09-07T09:43:16;25.90;67.20
31729;DHT22;18309;43.658;1.312;2023-09-07T09:45:41;26.10;67.30
31729;DHT22;18309;43.658;1.312;2023-09-07T09:48:08;26.20;66.20
31729;DHT22;18309;43.658;1.312;2023-09-07T09:50:34;26.30;65.90
31729;DHT22;18309;43.658;1.312;2023-09-07T09:53:05;26.30;66.20
31729;DHT22;18309;43.658;1.312;2023-09-07T09:55:32;26.40;66.00
31729;DHT22;18309;43.658;1.312;2023-09-07T09:57:59;26.60;66.30
31729;DHT22;18309;43.658;1.312;2023-09-07T10:00:25;26.60;65.80
31729;DHT22;18309;43.658;1.312;2023-09-07T10:03:19;26.60;65.60
31729;DHT22;18309;43.658;1.312;2023-09-07T10:05:49;26.70;65.30
31729;DHT22;18309;43.658;1.312;2023-09-07T10:08:17;26.80;65.40
31729;DHT22;18309;43.658;1.312;2023-09-07T10:10:46;26.90;65.70
31729;DHT22;18309;43.658;1.312;2023-09-07T10:13:14;27.10;65.90
31729;DHT22;18309;43.658;1.312;2023-09-07T10:15:40;27.30;65.30
31729;DHT22;18309;43.658;1.312;2023-09-07T10:18:11;27.20;64.50
31729;DHT22;18309;43.658;1.312;2023-09-07T10:23:14;27.20;64.70
31729;DHT22;18309;43.658;1.312;2023-09-07T10:25:40;27.20;64.90
31729;DHT22;18309;43.658;1.312;2023-09-07T10:28:05;27.20;64.80
31729;DHT22;18309;43.658;1.312;2023-09-07T10:30:42;27.20;65.30
31729;DHT22;18309;43.658;1.312;2023-09-07T10:33:19;27.20;65.40
31729;DHT22;18309;43.658;1.312;2023-09-07T10:35:45;27.20;66.00
31729;DHT22;18309;43.658;1.312;2023-09-07T10:38:14;27.20;66.60
31729;DHT22;18309;43.658;1.312;2023-09-07T10:40:44;27.30;66.40
31729;DHT22;18309;43.658;1.312;2023-09-07T10:43:10;27.30;66.30
31729;DHT22;18309;43.658;1.312;2023-09-07T10:45:36;27.40;66.20
31729;DHT22;18309;43.658;1.312;2023-09-07T10:48:02;27.40;66.80
31729;DHT22;18309;43.658;1.312;2023-09-07T10:50:29;27.40;66.60
31729;DHT22;18309;43.658;1.312;2023-09-07T10:52:55;27.50;67.50
31729;DHT22;18309;43.658;1.312;2023-09-07T10:55:21;27.50;66.10
31729;DHT22;18309;43.658;1.312;2023-09-07T10:57:47;27.60;67.00
31729;DHT22;18309;43.658;1.312;2023-09-07T11:00:14;27.60;67.80
31729;DHT22;18309;43.658;1.312;2023-09-07T11:02:43;27.70;66.90
31729;DHT22;18309;43.658;1.312;2023-09-07T11:05:09;27.60;67.30
31729;DHT22;18309;43.658;1.312;2023-09-07T11:07:38;27.60;66.90
31729;DHT22;18309;43.658;1.312;2023-09-07T11:10:06;27.70;67.50
31729;DHT22;18309;43.658;1.312;2023-09-07T11:12:39;27.90;67.10
31729;DHT22;18309;43.658;1.312;2023-09-07T11:15:09;28.00;67.20
31729;DHT22;18309;43.658;1.312;2023-09-07T11:17:37;28.10;66.70
31729;DHT22;18309;43.658;1.312;2023-09-07T11:20:05;28.30;66.60
31729;DHT22;18309;43.658;1.312;2023-09-07T11:22:36;28.50;66.10
31729;DHT22;18309;43.658;1.312;2023-09-07T11:25:05;28.40;66.40
31729;DHT22;18309;43.658;1.312;2023-09-07T11:27:31;28.50;66.70
31729;DHT22;18309;43.658;1.312;2023-09-07T11:29:57;28.60;66.10
31729;DHT22;18309;43.658;1.312;2023-09-07T11:32:24;28.60;66.90
31729;DHT22;18309;43.658;1.312;2023-09-07T11:34:51;28.70;66.30
31729;DHT22;18309;43.658;1.312;2023-09-07T11:37:23;28.80;66.50
31729;DHT22;18309;43.658;1.312;2023-09-07T11:39:49;29.00;65.10
31729;DHT22;18309;43.658;1.312;2023-09-07T11:42:14;29.10;65.80
31729;DHT22;18309;43.658;1.312;2023-09-07T11:44:40;29.20;65.40
31729;DHT22;18309;43.658;1.312;2023-09-07T11:47:06;29.20;65.00
31729;DHT22;18309;43.658;1.312;2023-09-07T11:49:32;29.20;65.10
31729;DHT22;18309;43.658;1.312;2023-09-07T11:51:58;29.30;64.50
31729;DHT22;18309;43.658;1.312;2023-09-07T11:54:23;29.40;64.20
31729;DHT22;18309;43.658;1.312;2023-09-07T11:56:49;29.60;65.00
31729;DHT22;18309;43.658;1.312;2023-09-07T11:59:15;29.70;65.20
31729;DHT22;18309;43.658;1.312;2023-09-07T12:01:42;29.60;64.90
31729;DHT22;18309;43.658;1.312;2023-09-07T12:04:09;29.80;65.00
31729;DHT22;18309;43.658;1.312;2023-09-07T12:06:34;29.80;64.10
31729;DHT22;18309;43.658;1.312;2023-09-07T12:09:02;29.60;64.50
31729;DHT22;18309;43.658;1.312;2023-09-07T12:11:28;29.70;64.70
31729;DHT22;18309;43.658;1.312;2023-09-07T12:13:54;29.80;64.40
31729;DHT22;18309;43.658;1.312;2023-09-07T12:16:19;30.10;64.10
31729;DHT22;18309;43.658;1.312;2023-09-07T12:18:45;30.10;63.90
31729;DHT22;18309;43.658;1.312;2023-09-07T12:21:11;30.10;64.00
31729;DHT22;18309;43.658;1.312;2023-09-07T12:23:36;30.40;63.00
31729;DHT22;18309;43.658;1.312;2023-09-07T12:26:02;30.50;62.70
31729;DHT22;18309;43.658;1.312;2023-09-07T12:28:30;30.60;61.90
31729;DHT22;18309;43.658;1.312;2023-09-07T12:30:57;30.80;61.30
31729;DHT22;18309;43.658;1.312;2023-09-07T12:33:24;30.80;61.90
31729;DHT22;18309;43.658;1.312;2023-09-07T12:35:50;31.00;61.80
31729;DHT22;18309;43.658;1.312;2023-09-07T12:38:15;31.00;62.50
31729;DHT22;18309;43.658;1.312;2023-09-07T12:40:44;31.00;60.80
31729;DHT22;18309;43.658;1.312;2023-09-07T12:43:09;31.00;62.50
31729;DHT22;18309;43.658;1.312;2023-09-07T12:45:35;31.20;61.70
31729;DHT22;18309;43.658;1.312;2023-09-07T12:48:01;31.30;61.10
31729;DHT22;18309;43.658;1.312;2023-09-07T12:50:27;31.30;60.60
31729;DHT22;18309;43.658;1.312;2023-09-07T12:52:53;31.40;60.60
31729;DHT22;18309;43.658;1.312;2023-09-07T12:55:20;31.60;59.60
31729;DHT22;18309;43.658;1.312;2023-09-07T12:57:46;31.60;60.00
31729;DHT22;18309;43.658;1.312;2023-09-07T13:00:12;31.80;59.70
31729;DHT22;18309;43.658;1.312;2023-09-07T13:02:38;31.90;59.40
31729;DHT22;18309;43.658;1.312;2023-09-07T13:05:04;32.10;59.00
31729;DHT22;18309;43.658;1.312;2023-09-07T13:07:32;32.10;59.90
31729;DHT22;18309;43.658;1.312;2023-09-07T13:09:58;32.40;59.30
31729;DHT22;18309;43.658;1.312;2023-09-07T13:12:27;32.60;58.60
31729;DHT22;18309;43.658;1.312;2023-09-07T13:14:53;32.80;57.70
31729;DHT22;18309;43.658;1.312;2023-09-07T13:17:18;33.00;57.70
31729;DHT22;18309;43.658;1.312;2023-09-07T13:19:44;33.30;57.20
31729;DHT22;18309;43.658;1.312;2023-09-07T13:22:10;33.40;56.10
31729;DHT22;18309;43.658;1.312;2023-09-07T13:24:36;33.60;56.30
31729;DHT22;18309;43.658;1.312;2023-09-07T13:27:02;33.70;56.10
31729;DHT22;18309;43.658;1.312;2023-09-07T13:29:29;34.00;55.70
31729;DHT22;18309;43.658;1.312;2023-09-07T13:31:54;34.20;55.70
31729;DHT22;18309;43.658;1.312;2023-09-07T13:34:21;34.40;54.90
31729;DHT22;18309;43.658;1.312;2023-09-07T13:36:47;34.50;54.60
31729;DHT22;18309;43.658;1.312;2023-09-07T13:39:13;35.10;54.20
31729;DHT22;18309;43.658;1.312;2023-09-07T13:41:39;35.80;52.90
31729;DHT22;18309;43.658;1.312;2023-09-07T13:44:04;36.30;52.00
31729;DHT22;18309;43.658;1.312;2023-09-07T13:46:30;37.20;50.90
31729;DHT22;18309;43.658;1.312;2023-09-07T13:48:56;38.30;48.90
31729;DHT22;18309;43.658;1.312;2023-09-07T13:51:22;40.50;45.70
31729;DHT22;18309;43.658;1.312;2023-09-07T13:53:48;42.00;44.40
31729;DHT22;18309;43.658;1.312;2023-09-07T13:56:15;43.30;43.10
31729;DHT22;18309;43.658;1.312;2023-09-07T13:58:41;44.30;42.30
31729;DHT22;18309;43.658;1.312;2023-09-07T14:01:07;44.80;40.60
31729;DHT22;18309;43.658;1.312;2023-09-07T14:03:32;45.00;40.60
31729;DHT22;18309;43.658;1.312;2023-09-07T14:05:58;44.90;40.10
31729;DHT22;18309;43.658;1.312;2023-09-07T14:08:24;46.10;39.10
31729;DHT22;18309;43.658;1.312;2023-09-07T14:10:50;46.50;38.60
31729;DHT22;18309;43.658;1.312;2023-09-07T14:13:17;46.10;39.30
31729;DHT22;18309;43.658;1.312;2023-09-07T14:15:43;45.90;38.90
31729;DHT22;18309;43.658;1.312;2023-09-07T14:18:09;46.10;39.20
31729;DHT22;18309;43.658;1.312;2023-09-07T14:20:34;45.90;38.80
31729;DHT22;18309;43.658;1.312;2023-09-07T14:23:00;45.80;38.40
31729;DHT22;18309;43.658;1.312;2023-09-07T14:25:27;46.10;38.70
31729;DHT22;18309;43.658;1.312;2023-09-07T14:27:52;45.70;38.60
31729;DHT22;18309;43.658;1.312;2023-09-07T14:30:18;45.10;39.50
31729;DHT22;18309;43.658;1.312;2023-09-07T14:32:44;44.40;40.40
31729;DHT22;18309;43.658;1.312;2023-09-07T14:35:12;43.30;41.10
31729;DHT22;18309;43.658;1.312;2023-09-07T14:37:38;42.60;42.80
31729;DHT22;18309;43.658;1.312;2023-09-07T14:40:04;41.90;42.20
31729;DHT22;18309;43.658;1.312;2023-09-07T14:42:30;41.30;42.50
31729;DHT22;18309;43.658;1.312;2023-09-07T14:44:55;40.70;43.30
31729;DHT22;18309;43.658;1.312;2023-09-07T14:47:23;40.10;44.10
31729;DHT22;18309;43.658;1.312;2023-09-07T14:49:52;39.50;43.50
31729;DHT22;18309;43.658;1.312;2023-09-07T14:52:18;39.30;44.20
31729;DHT22;18309;43.658;1.312;2023-09-07T14:54:44;39.40;44.20
31729;DHT22;18309;43.658;1.312;2023-09-07T14:57:09;39.40;44.00
31729;DHT22;18309;43.658;1.312;2023-09-07T14:59:35;38.80;44.40
31729;DHT22;18309;43.658;1.312;2023-09-07T15:02:05;38.90;44.00
31729;DHT22;18309;43.658;1.312;2023-09-07T15:04:31;38.80;44.30
31729;DHT22;18309;43.658;1.312;2023-09-07T15:06:57;38.70;44.60
31729;DHT22;18309;43.658;1.312;2023-09-07T15:09:23;38.30;44.60
31729;DHT22;18309;43.658;1.312;2023-09-07T15:11:48;38.00;44.50
31729;DHT22;18309;43.658;1.312;2023-09-07T15:14:14;38.00;45.00
31729;DHT22;18309;43.658;1.312;2023-09-07T15:16:40;38.10;44.60
31729;DHT22;18309;43.658;1.312;2023-09-07T15:19:05;37.90;43.80
31729;DHT22;18309;43.658;1.312;2023-09-07T15:21:31;37.90;44.30
31729;DHT22;18309;43.658;1.312;2023-09-07T15:23:57;37.80;44.10
31729;DHT22;18309;43.658;1.312;2023-09-07T15:26:23;37.50;45.10
31729;DHT22;18309;43.658;1.312;2023-09-07T15:28:49;37.30;45.00